sensor_id;sensor_type;location;lat;lon;timestamp;P1;durP1;ratioP1;P2;durP2;ratioP2
11531;SDS011;5822;51.000;5.874;2023-05-29T00:01:13;15.50;;;14.80;;
11531;SDS011;5822;51.000;5.874;2023-05-29T00:03:38;16.20;;;15.40;;
11531;SDS011;5822;51.000;5.874;2023-05-29T00:06:04;16.42;;;15.52;;
11531;SDS011;5822;51.000;5.874;2023-05-29T00:08:31;16.07;;;15.23;;
11531;SDS011;5822;51.000;5.874;2023-05-29T00:10:57;16.02;;;15.23;;
11531;SDS011;5822;51.000;5.874;2023-05-29T00:13:23;15.82;;;15.02;;
11531;SDS011;5822;51.000;5.874;2023-05-29T00:15:48;15.80;;;15.00;;
11531;SDS011;5822;51.000;5.874;2023-05-29T00:18:14;15.90;;;15.10;;
11531;SDS011;5822;51.000;5.874;2023-05-29T00:20:40;15.50;;;14.70;;
11531;SDS011;5822;51.000;5.874;2023-05-29T00:23:06;15.53;;;14.73;;
11531;SDS011;5822;51.000;5.874;2023-05-29T00:25:32;15.30;;;14.50;;
11531;SDS011;5822;51.000;5.874;2023-05-29T00:27:58;15.45;;;14.70;;
11531;SDS011;5822;51.000;5.874;2023-05-29T00:30:24;15.40;;;14.60;;
11531;SDS011;5822;51.000;5.874;2023-05-29T00:32:50;15.07;;;14.37;;
11531;SDS011;5822;51.000;5.874;2023-05-29T00:35:17;15.30;;;14.50;;
11531;SDS011;5822;51.000;5.874;2023-05-29T00:37:43;15.55;;;14.75;;
11531;SDS011;5822;51.000;5.874;2023-05-29T00:40:09;15.30;;;14.50;;
11531;SDS011;5822;51.000;5.874;2023-05-29T00:42:36;15.23;;;14.43;;
11531;SDS011;5822;51.000;5.874;2023-05-29T00:45:02;15.40;;;14.60;;
11531;SDS011;5822;51.000;5.874;2023-05-29T00:47:28;14.80;;;14.10;;
11531;SDS011;5822;51.000;5.874;2023-05-29T00:49:55;15.52;;;14.73;;
11531;SDS011;5822;51.000;5.874;2023-05-29T00:52:21;15.35;;;14.60;;
11531;SDS011;5822;51.000;5.874;2023-05-29T00:54:48;15.50;;;14.70;;
11531;SDS011;5822;51.000;5.874;2023-05-29T00:57:13;15.77;;;14.97;;
11531;SDS011;5822;51.000;5.874;2023-05-29T00:59:41;15.70;;;14.90;;
11531;SDS011;5822;51.000;5.874;2023-05-29T01:02:08;16.20;;;15.38;;
11531;SDS011;5822;51.000;5.874;2023-05-29T01:04:35;16.90;;;16.00;;
11531;SDS011;5822;51.000;5.874;2023-05-29T01:07:03;17.10;;;16.20;;
11531;SDS011;5822;51.000;5.874;2023-05-29T01:09:29;16.30;;;15.40;;
11531;SDS011;5822;51.000;5.874;2023-05-29T01:18:29;17.13;;;16.23;;
11531;SDS011;5822;51.000;5.874;2023-05-29T01:21:04;16.90;;;16.00;;
11531;SDS011;5822;51.000;5.874;2023-05-29T01:23:44;16.75;;;15.95;;
11531;SDS011;5822;51.000;5.874;2023-05-29T01:29:07;16.77;;;15.88;;
11531;SDS011;5822;51.000;5.874;2023-05-29T01:31:35;16.50;;;15.60;;
11531;SDS011;5822;51.000;5.874;2023-05-29T01:34:02;16.33;;;15.50;;
11531;SDS011;5822;51.000;5.874;2023-05-29T01:36:28;16.75;;;15.85;;
11531;SDS011;5822;51.000;5.874;2023-05-29T01:38:54;17.00;;;16.10;;
11531;SDS011;5822;51.000;5.874;2023-05-29T01:41:22;17.15;;;16.25;;
11531;SDS011;5822;51.000;5.874;2023-05-29T01:43:49;17.13;;;16.23;;
11531;SDS011;5822;51.000;5.874;2023-05-29T01:46:16;16.90;;;16.00;;
11531;SDS011;5822;51.000;5.874;2023-05-29T01:48:43;16.33;;;15.50;;
11531;SDS011;5822;51.000;5.874;2023-05-29T01:51:10;16.40;;;15.60;;
11531;SDS011;5822;51.000;5.874;2023-05-29T01:53:37;16.23;;;15.43;;
11531;SDS011;5822;51.000;5.874;2023-05-29T01:56:06;17.30;;;16.30;;
11531;SDS011;5822;51.000;5.874;2023-05-29T01:58:36;17.08;;;16.17;;
11531;SDS011;5822;51.000;5.874;2023-05-29T02:01:03;18.10;;;17.10;;
11531;SDS011;5822;51.000;5.874;2023-05-29T02:03:31;17.45;;;16.55;;
11531;SDS011;5822;51.000;5.874;2023-05-29T02:05:57;17.25;;;16.35;;
11531;SDS011;5822;51.000;5.874;2023-05-29T02:08:23;16.50;;;15.70;;
11531;SDS011;5822;51.000;5.874;2023-05-29T02:10:49;16.80;;;15.90;;
11531;SDS011;5822;51.000;5.874;2023-05-29T02:13:15;16.90;;;16.00;;
11531;SDS011;5822;51.000;5.874;2023-05-29T02:15:41;16.80;;;15.90;;
11531;SDS011;5822;51.000;5.874;2023-05-29T02:18:09;16.90;;;16.07;;
11531;SDS011;5822;51.000;5.874;2023-05-29T02:20:37;17.23;;;16.33;;
11531;SDS011;5822;51.000;5.874;2023-05-29T02:23:03;17.20;;;16.20;;
11531;SDS011;5822;51.000;5.874;2023-05-29T02:25:28;16.90;;;16.00;;
11531;SDS011;5822;51.000;5.874;2023-05-29T02:27:54;16.30;;;15.50;;
11531;SDS011;5822;51.000;5.874;2023-05-29T02:30:20;16.55;;;15.70;;
11531;SDS011;5822;51.000;5.874;2023-05-29T02:32:45;16.50;;;15.60;;
11531;SDS011;5822;51.000;5.874;2023-05-29T02:35:11;16.50;;;15.60;;
11531;SDS011;5822;51.000;5.874;2023-05-29T02:37:40;17.23;;;16.33;;
11531;SDS011;5822;51.000;5.874;2023-05-29T02:40:06;16.67;;;15.77;;
11531;SDS011;5822;51.000;5.874;2023-05-29T02:42:33;17.23;;;16.33;;
11531;SDS011;5822;51.000;5.874;2023-05-29T02:44:59;16.70;;;15.80;;
11531;SDS011;5822;51.000;5.874;2023-05-29T02:47:24;16.67;;;15.77;;
11531;SDS011;5822;51.000;5.874;2023-05-29T02:49:50;16.40;;;15.50;;
11531;SDS011;5822;51.000;5.874;2023-05-29T02:52:16;16.70;;;15.80;;
11531;SDS011;5822;51.000;5.874;2023-05-29T02:54:42;16.73;;;15.82;;
11531;SDS011;5822;51.000;5.874;2023-05-29T02:57:07;16.65;;;15.75;;
11531;SDS011;5822;51.000;5.874;2023-05-29T02:59:33;16.70;;;15.80;;
11531;SDS011;5822;51.000;5.874;2023-05-29T03:01:58;16.70;;;15.80;;
11531;SDS011;5822;51.000;5.874;2023-05-29T03:04:24;16.40;;;15.50;;
11531;SDS011;5822;51.000;5.874;2023-05-29T03:06:51;16.02;;;15.23;;
11531;SDS011;5822;51.000;5.874;2023-05-29T03:09:17;16.03;;;15.20;;
11531;SDS011;5822;51.000;5.874;2023-05-29T03:11:44;16.30;;;15.40;;
11531;SDS011;5822;51.000;5.874;2023-05-29T03:14:10;16.00;;;15.20;;
11531;SDS011;5822;51.000;5.874;2023-05-29T03:16:35;16.20;;;15.30;;
11531;SDS011;5822;51.000;5.874;2023-05-29T03:19:03;16.50;;;15.60;;
11531;SDS011;5822;51.000;5.874;2023-05-29T03:21:28;16.20;;;15.40;;
11531;SDS011;5822;51.000;5.874;2023-05-29T03:23:56;15.98;;;15.18;;
11531;SDS011;5822;51.000;5.874;2023-05-29T03:26:21;16.08;;;15.27;;
11531;SDS011;5822;51.000;5.874;2023-05-29T03:28:47;16.30;;;15.40;;
11531;SDS011;5822;51.000;5.874;2023-05-29T03:31:13;15.80;;;15.00;;
11531;SDS011;5822;51.000;5.874;2023-05-29T03:33:38;16.05;;;15.23;;
11531;SDS011;5822;51.000;5.874;2023-05-29T03:36:04;16.10;;;15.30;;
11531;SDS011;5822;51.000;5.874;2023-05-29T03:38:30;15.98;;;15.15;;
11531;SDS011;5822;51.000;5.874;2023-05-29T03:40:56;16.35;;;15.45;;
11531;SDS011;5822;51.000;5.874;2023-05-29T03:43:21;15.60;;;14.80;;
11531;SDS011;5822;51.000;5.874;2023-05-29T03:45:47;15.70;;;14.90;;
11531;SDS011;5822;51.000;5.874;2023-05-29T03:48:13;15.82;;;14.95;;
11531;SDS011;5822;51.000;5.874;2023-05-29T03:50:40;15.73;;;14.93;;
11531;SDS011;5822;51.000;5.874;2023-05-29T03:53:05;16.75;;;15.77;;
11531;SDS011;5822;51.000;5.874;2023-05-29T03:55:31;16.42;;;15.52;;
11531;SDS011;5822;51.000;5.874;2023-05-29T03:57:57;16.40;;;15.40;;
11531;SDS011;5822;51.000;5.874;2023-05-29T04:00:22;16.73;;;15.83;;
11531;SDS011;5822;51.000;5.874;2023-05-29T04:02:48;16.57;;;15.57;;
11531;SDS011;5822;51.000;5.874;2023-05-29T04:05:14;16.45;;;15.55;;
11531;SDS011;5822;51.000;5.874;2023-05-29T04:07:39;16.20;;;15.30;;
11531;SDS011;5822;51.000;5.874;2023-05-29T04:10:05;16.20;;;15.30;;
11531;SDS011;5822;51.000;5.874;2023-05-29T04:12:32;16.47;;;15.57;;
11531;SDS011;5822;51.000;5.874;2023-05-29T04:14:58;16.40;;;15.50;;
11531;SDS011;5822;51.000;5.874;2023-05-29T04:17:24;16.52;;;15.60;;
11531;SDS011;5822;51.000;5.874;2023-05-29T04:19:49;16.45;;;15.55;;
11531;SDS011;5822;51.000;5.874;2023-05-29T04:22:15;15.97;;;15.07;;
11531;SDS011;5822;51.000;5.874;2023-05-29T04:24:41;16.10;;;15.20;;
11531;SDS011;5822;51.000;5.874;2023-05-29T04:27:07;16.10;;;15.20;;
11531;SDS011;5822;51.000;5.874;2023-05-29T04:29:34;15.90;;;15.00;;
11531;SDS011;5822;51.000;5.874;2023-05-29T04:32:00;16.40;;;15.50;;
11531;SDS011;5822;51.000;5.874;2023-05-29T04:34:28;16.42;;;15.52;;
11531;SDS011;5822;51.000;5.874;2023-05-29T04:36:57;16.48;;;15.50;;
11531;SDS011;5822;51.000;5.874;2023-05-29T04:39:23;16.10;;;15.20;;
11531;SDS011;5822;51.000;5.874;2023-05-29T04:41:49;16.00;;;15.10;;
11531;SDS011;5822;51.000;5.874;2023-05-29T04:44:16;15.93;;;15.02;;
11531;SDS011;5822;51.000;5.874;2023-05-29T04:46:42;16.05;;;15.15;;
11531;SDS011;5822;51.000;5.874;2023-05-29T04:49:09;16.10;;;15.20;;
11531;SDS011;5822;51.000;5.874;2023-05-29T04:51:35;16.30;;;15.40;;
11531;SDS011;5822;51.000;5.874;2023-05-29T04:54:01;16.30;;;15.37;;
11531;SDS011;5822;51.000;5.874;2023-05-29T04:56:27;16.48;;;15.57;;
11531;SDS011;5822;51.000;5.874;2023-05-29T04:58:53;15.95;;;15.05;;
11531;SDS011;5822;51.000;5.874;2023-05-29T05:01:19;16.00;;;15.10;;
11531;SDS011;5822;51.000;5.874;2023-05-29T05:03:45;16.42;;;15.43;;
11531;SDS011;5822;51.000;5.874;2023-05-29T05:06:11;16.10;;;15.20;;
11531;SDS011;5822;51.000;5.874;2023-05-29T05:08:37;16.58;;;15.57;;
11531;SDS011;5822;51.000;5.874;2023-05-29T05:11:03;16.80;;;15.80;;
11531;SDS011;5822;51.000;5.874;2023-05-29T05:13:29;16.77;;;15.77;;
11531;SDS011;5822;51.000;5.874;2023-05-29T05:15:55;16.33;;;15.40;;
11531;SDS011;5822;51.000;5.874;2023-05-29T05:18:20;16.47;;;15.50;;
11531;SDS011;5822;51.000;5.874;2023-05-29T05:20:46;16.63;;;15.63;;
11531;SDS011;5822;51.000;5.874;2023-05-29T05:23:12;16.60;;;15.60;;
11531;SDS011;5822;51.000;5.874;2023-05-29T05:25:37;16.70;;;15.70;;
11531;SDS011;5822;51.000;5.874;2023-05-29T05:28:04;16.95;;;15.95;;
11531;SDS011;5822;51.000;5.874;2023-05-29T05:30:30;17.10;;;16.00;;
11531;SDS011;5822;51.000;5.874;2023-05-29T05:32:56;17.20;;;16.10;;
11531;SDS011;5822;51.000;5.874;2023-05-29T05:35:23;17.08;;;16.08;;
11531;SDS011;5822;51.000;5.874;2023-05-29T05:37:49;16.90;;;15.90;;
11531;SDS011;5822;51.000;5.874;2023-05-29T05:40:14;17.00;;;16.00;;
11531;SDS011;5822;51.000;5.874;2023-05-29T05:42:40;16.65;;;15.65;;
11531;SDS011;5822;51.000;5.874;2023-05-29T05:45:06;16.80;;;15.80;;
11531;SDS011;5822;51.000;5.874;2023-05-29T05:47:32;16.98;;;15.98;;
11531;SDS011;5822;51.000;5.874;2023-05-29T05:49:58;17.40;;;16.30;;
11531;SDS011;5822;51.000;5.874;2023-05-29T05:52:24;17.20;;;16.10;;
11531;SDS011;5822;51.000;5.874;2023-05-29T05:54:55;17.08;;;16.08;;
11531;SDS011;5822;51.000;5.874;2023-05-29T05:57:20;17.00;;;16.00;;
11531;SDS011;5822;51.000;5.874;2023-05-29T05:59:46;16.90;;;15.90;;
11531;SDS011;5822;51.000;5.874;2023-05-29T06:02:12;17.17;;;16.08;;
11531;SDS011;5822;51.000;5.874;2023-05-29T06:04:37;18.20;;;17.10;;
11531;SDS011;5822;51.000;5.874;2023-05-29T06:07:03;18.70;;;17.60;;
11531;SDS011;5822;51.000;5.874;2023-05-29T06:09:29;18.40;;;17.40;;
11531;SDS011;5822;51.000;5.874;2023-05-29T06:11:54;18.80;;;17.70;;
11531;SDS011;5822;51.000;5.874;2023-05-29T06:14:20;19.08;;;17.88;;
11531;SDS011;5822;51.000;5.874;2023-05-29T06:16:46;18.52;;;17.52;;
11531;SDS011;5822;51.000;5.874;2023-05-29T06:19:12;18.63;;;17.58;;
11531;SDS011;5822;51.000;5.874;2023-05-29T06:21:39;18.80;;;17.70;;
11531;SDS011;5822;51.000;5.874;2023-05-29T06:24:05;19.23;;;18.13;;
11531;SDS011;5822;51.000;5.874;2023-05-29T06:26:31;20.17;;;19.15;;
11531;SDS011;5822;51.000;5.874;2023-05-29T06:28:57;23.40;;;22.20;;
11531;SDS011;5822;51.000;5.874;2023-05-29T06:31:23;18.70;;;17.67;;
11531;SDS011;5822;51.000;5.874;2023-05-29T06:33:48;18.93;;;17.87;;
11531;SDS011;5822;51.000;5.874;2023-05-29T06:36:15;19.00;;;17.98;;
11531;SDS011;5822;51.000;5.874;2023-05-29T06:38:45;18.80;;;17.70;;
11531;SDS011;5822;51.000;5.874;2023-05-29T06:41:12;19.10;;;18.00;;
11531;SDS011;5822;51.000;5.874;2023-05-29T06:43:37;18.70;;;17.70;;
11531;SDS011;5822;51.000;5.874;2023-05-29T06:46:03;19.07;;;17.97;;
11531;SDS011;5822;51.000;5.874;2023-05-29T06:48:32;18.70;;;17.60;;
11531;SDS011;5822;51.000;5.874;2023-05-29T06:50:58;21.77;;;20.58;;
11531;SDS011;5822;51.000;5.874;2023-05-29T06:53:24;18.73;;;17.63;;
11531;SDS011;5822;51.000;5.874;2023-05-29T06:55:50;18.48;;;17.48;;
11531;SDS011;5822;51.000;5.874;2023-05-29T06:58:15;18.93;;;17.83;;
11531;SDS011;5822;51.000;5.874;2023-05-29T07:00:41;19.33;;;18.23;;
11531;SDS011;5822;51.000;5.874;2023-05-29T07:03:06;18.87;;;17.77;;
11531;SDS011;5822;51.000;5.874;2023-05-29T07:05:32;19.58;;;18.48;;
11531;SDS011;5822;51.000;5.874;2023-05-29T07:07:58;19.08;;;17.90;;
11531;SDS011;5822;51.000;5.874;2023-05-29T07:10:24;19.00;;;17.88;;
11531;SDS011;5822;51.000;5.874;2023-05-29T07:12:49;18.57;;;17.47;;
11531;SDS011;5822;51.000;5.874;2023-05-29T07:15:15;18.23;;;17.20;;
11531;SDS011;5822;51.000;5.874;2023-05-29T07:17:41;18.33;;;17.25;;
11531;SDS011;5822;51.000;5.874;2023-05-29T07:20:07;19.00;;;17.90;;
11531;SDS011;5822;51.000;5.874;2023-05-29T07:22:33;18.92;;;17.83;;
11531;SDS011;5822;51.000;5.874;2023-05-29T07:25:00;18.58;;;17.58;;
11531;SDS011;5822;51.000;5.874;2023-05-29T07:27:26;17.95;;;16.95;;
11531;SDS011;5822;51.000;5.874;2023-05-29T07:29:51;18.33;;;17.33;;
11531;SDS011;5822;51.000;5.874;2023-05-29T07:32:17;17.38;;;16.48;;
11531;SDS011;5822;51.000;5.874;2023-05-29T07:34:42;18.13;;;17.10;;
11531;SDS011;5822;51.000;5.874;2023-05-29T07:37:08;17.67;;;16.67;;
11531;SDS011;5822;51.000;5.874;2023-05-29T07:39:34;18.40;;;17.40;;
11531;SDS011;5822;51.000;5.874;2023-05-29T07:42:01;18.20;;;17.20;;
11531;SDS011;5822;51.000;5.874;2023-05-29T07:44:27;18.23;;;17.13;;
11531;SDS011;5822;51.000;5.874;2023-05-29T07:46:53;17.80;;;16.80;;
11531;SDS011;5822;51.000;5.874;2023-05-29T07:49:22;17.40;;;16.43;;
11531;SDS011;5822;51.000;5.874;2023-05-29T07:51:48;18.03;;;16.90;;
11531;SDS011;5822;51.000;5.874;2023-05-29T07:54:13;17.33;;;16.43;;
11531;SDS011;5822;51.000;5.874;2023-05-29T07:56:42;18.02;;;16.92;;
11531;SDS011;5822;51.000;5.874;2023-05-29T07:59:08;19.00;;;17.80;;
11531;SDS011;5822;51.000;5.874;2023-05-29T08:01:34;18.50;;;17.40;;
11531;SDS011;5822;51.000;5.874;2023-05-29T08:04:00;18.10;;;17.00;;
11531;SDS011;5822;51.000;5.874;2023-05-29T08:06:26;18.00;;;16.90;;
11531;SDS011;5822;51.000;5.874;2023-05-29T08:08:52;17.90;;;16.90;;
11531;SDS011;5822;51.000;5.874;2023-05-29T08:11:18;17.83;;;16.83;;
11531;SDS011;5822;51.000;5.874;2023-05-29T08:13:44;17.90;;;16.90;;
11531;SDS011;5822;51.000;5.874;2023-05-29T08:16:10;18.10;;;16.97;;
11531;SDS011;5822;51.000;5.874;2023-05-29T08:18:35;17.47;;;16.47;;
11531;SDS011;5822;51.000;5.874;2023-05-29T08:21:01;16.00;;;15.00;;
11531;SDS011;5822;51.000;5.874;2023-05-29T08:23:27;16.08;;;15.18;;
11531;SDS011;5822;51.000;5.874;2023-05-29T08:25:53;16.02;;;15.02;;
11531;SDS011;5822;51.000;5.874;2023-05-29T08:28:18;16.02;;;15.13;;
11531;SDS011;5822;51.000;5.874;2023-05-29T08:30:44;16.30;;;15.40;;
11531;SDS011;5822;51.000;5.874;2023-05-29T08:33:10;15.82;;;14.93;;
11531;SDS011;5822;51.000;5.874;2023-05-29T08:35:36;15.90;;;15.00;;
11531;SDS011;5822;51.000;5.874;2023-05-29T08:38:01;16.40;;;15.40;;
11531;SDS011;5822;51.000;5.874;2023-05-29T08:40:27;16.33;;;15.40;;
11531;SDS011;5822;51.000;5.874;2023-05-29T08:42:57;16.30;;;15.30;;
11531;SDS011;5822;51.000;5.874;2023-05-29T08:45:27;16.02;;;15.13;;
11531;SDS011;5822;51.000;5.874;2023-05-29T08:47:54;16.48;;;15.48;;
11531;SDS011;5822;51.000;5.874;2023-05-29T08:50:23;16.30;;;15.30;;
11531;SDS011;5822;51.000;5.874;2023-05-29T08:52:48;16.98;;;15.98;;
11531;SDS011;5822;51.000;5.874;2023-05-29T08:55:15;16.63;;;15.73;;
11531;SDS011;5822;51.000;5.874;2023-05-29T08:57:42;16.20;;;15.30;;
11531;SDS011;5822;51.000;5.874;2023-05-29T09:00:09;17.88;;;16.60;;
11531;SDS011;5822;51.000;5.874;2023-05-29T09:02:40;17.07;;;15.97;;
11531;SDS011;5822;51.000;5.874;2023-05-29T09:05:06;16.30;;;15.40;;
11531;SDS011;5822;51.000;5.874;2023-05-29T09:07:33;16.33;;;15.43;;
11531;SDS011;5822;51.000;5.874;2023-05-29T09:09:59;16.10;;;15.20;;
11531;SDS011;5822;51.000;5.874;2023-05-29T09:12:26;16.50;;;15.52;;
11531;SDS011;5822;51.000;5.874;2023-05-29T09:14:52;16.20;;;15.30;;
11531;SDS011;5822;51.000;5.874;2023-05-29T09:17:18;16.58;;;15.57;;
11531;SDS011;5822;51.000;5.874;2023-05-29T09:19:43;16.20;;;15.30;;
11531;SDS011;5822;51.000;5.874;2023-05-29T09:22:13;16.20;;;15.30;;
11531;SDS011;5822;51.000;5.874;2023-05-29T09:24:43;15.80;;;14.90;;
11531;SDS011;5822;51.000;5.874;2023-05-29T09:27:12;16.48;;;15.57;;
11531;SDS011;5822;51.000;5.874;2023-05-29T09:29:42;16.00;;;15.10;;
11531;SDS011;5822;51.000;5.874;2023-05-29T09:32:13;16.15;;;15.30;;
11531;SDS011;5822;51.000;5.874;2023-05-29T09:34:41;16.40;;;15.40;;
11531;SDS011;5822;51.000;5.874;2023-05-29T09:37:08;16.50;;;15.60;;
11531;SDS011;5822;51.000;5.874;2023-05-29T09:42:11;17.20;;;16.10;;
11531;SDS011;5822;51.000;5.874;2023-05-29T09:44:37;16.65;;;15.65;;
11531;SDS011;5822;51.000;5.874;2023-05-29T09:47:02;17.40;;;16.20;;
11531;SDS011;5822;51.000;5.874;2023-05-29T09:49:30;18.20;;;16.90;;
11531;SDS011;5822;51.000;5.874;2023-05-29T09:51:57;16.63;;;15.68;;
11531;SDS011;5822;51.000;5.874;2023-05-29T09:54:29;16.90;;;15.90;;
11531;SDS011;5822;51.000;5.874;2023-05-29T09:56:55;16.52;;;15.63;;
11531;SDS011;5822;51.000;5.874;2023-05-29T09:59:23;16.70;;;15.80;;
11531;SDS011;5822;51.000;5.874;2023-05-29T10:01:54;16.20;;;15.30;;
11531;SDS011;5822;51.000;5.874;2023-05-29T10:04:26;16.30;;;15.40;;
11531;SDS011;5822;51.000;5.874;2023-05-29T10:06:52;17.03;;;16.03;;
11531;SDS011;5822;51.000;5.874;2023-05-29T10:09:21;17.75;;;16.55;;
11531;SDS011;5822;51.000;5.874;2023-05-29T10:11:50;17.40;;;16.30;;
11531;SDS011;5822;51.000;5.874;2023-05-29T10:14:20;16.83;;;15.93;;
11531;SDS011;5822;51.000;5.874;2023-05-29T10:16:48;16.98;;;15.98;;
11531;SDS011;5822;51.000;5.874;2023-05-29T10:19:21;16.45;;;15.55;;
11531;SDS011;5822;51.000;5.874;2023-05-29T10:21:51;16.20;;;15.30;;
11531;SDS011;5822;51.000;5.874;2023-05-29T10:24:19;16.90;;;15.90;;
11531;SDS011;5822;51.000;5.874;2023-05-29T10:26:47;16.90;;;15.90;;
11531;SDS011;5822;51.000;5.874;2023-05-29T10:37:32;16.73;;;15.77;;
11531;SDS011;5822;51.000;5.874;2023-05-29T10:40:09;16.27;;;15.38;;
11531;SDS011;5822;51.000;5.874;2023-05-29T10:45:11;16.55;;;15.55;;
11531;SDS011;5822;51.000;5.874;2023-05-29T10:50:40;16.20;;;15.30;;
11531;SDS011;5822;51.000;5.874;2023-05-29T10:53:10;16.80;;;15.70;;
11531;SDS011;5822;51.000;5.874;2023-05-29T10:55:40;16.58;;;15.57;;
11531;SDS011;5822;51.000;5.874;2023-05-29T10:58:06;16.60;;;15.60;;
11531;SDS011;5822;51.000;5.874;2023-05-29T11:00:33;16.30;;;15.40;;
11531;SDS011;5822;51.000;5.874;2023-05-29T11:03:02;16.27;;;15.37;;
11531;SDS011;5822;51.000;5.874;2023-05-29T11:05:28;16.13;;;15.23;;
11531;SDS011;5822;51.000;5.874;2023-05-29T11:07:58;16.23;;;15.32;;
11531;SDS011;5822;51.000;5.874;2023-05-29T11:13:31;16.83;;;15.82;;
11531;SDS011;5822;51.000;5.874;2023-05-29T11:18:50;16.10;;;15.20;;
11531;SDS011;5822;51.000;5.874;2023-05-29T11:21:53;16.48;;;15.45;;
11531;SDS011;5822;51.000;5.874;2023-05-29T11:24:26;17.00;;;16.00;;
11531;SDS011;5822;51.000;5.874;2023-05-29T11:26:53;16.70;;;15.75;;
11531;SDS011;5822;51.000;5.874;2023-05-29T11:29:27;16.48;;;15.57;;
11531;SDS011;5822;51.000;5.874;2023-05-29T11:31:58;16.60;;;15.70;;
11531;SDS011;5822;51.000;5.874;2023-05-29T11:34:35;16.13;;;15.23;;
11531;SDS011;5822;51.000;5.874;2023-05-29T11:37:05;16.38;;;15.48;;
11531;SDS011;5822;51.000;5.874;2023-05-29T11:39:30;16.40;;;15.40;;
11531;SDS011;5822;51.000;5.874;2023-05-29T11:42:00;16.83;;;15.82;;
11531;SDS011;5822;51.000;5.874;2023-05-29T11:44:26;16.60;;;15.70;;
11531;SDS011;5822;51.000;5.874;2023-05-29T11:49:32;16.52;;;15.63;;
11531;SDS011;5822;51.000;5.874;2023-05-29T11:52:11;16.83;;;15.93;;
11531;SDS011;5822;51.000;5.874;2023-05-29T11:54:39;17.08;;;16.08;;
11531;SDS011;5822;51.000;5.874;2023-05-29T11:57:06;17.10;;;16.10;;
11531;SDS011;5822;51.000;5.874;2023-05-29T11:59:32;16.77;;;15.88;;
11531;SDS011;5822;51.000;5.874;2023-05-29T12:01:59;17.40;;;16.40;;
11531;SDS011;5822;51.000;5.874;2023-05-29T12:04:28;17.92;;;16.92;;
11531;SDS011;5822;51.000;5.874;2023-05-29T12:06:54;17.65;;;16.73;;
11531;SDS011;5822;51.000;5.874;2023-05-29T12:09:27;18.73;;;17.73;;
11531;SDS011;5822;51.000;5.874;2023-05-29T12:11:54;18.20;;;17.20;;
11531;SDS011;5822;51.000;5.874;2023-05-29T12:14:37;18.33;;;17.33;;
11531;SDS011;5822;51.000;5.874;2023-05-29T12:17:03;18.50;;;17.47;;
11531;SDS011;5822;51.000;5.874;2023-05-29T12:19:30;18.15;;;17.20;;
11531;SDS011;5822;51.000;5.874;2023-05-29T12:21:56;16.65;;;15.75;;
11531;SDS011;5822;51.000;5.874;2023-05-29T12:24:22;16.60;;;15.70;;
11531;SDS011;5822;51.000;5.874;2023-05-29T12:26:48;16.70;;;15.80;;
11531;SDS011;5822;51.000;5.874;2023-05-29T12:29:13;16.35;;;15.45;;
11531;SDS011;5822;51.000;5.874;2023-05-29T12:31:40;17.60;;;16.60;;
11531;SDS011;5822;51.000;5.874;2023-05-29T12:34:10;17.75;;;16.75;;
11531;SDS011;5822;51.000;5.874;2023-05-29T12:36:40;17.67;;;16.77;;
11531;SDS011;5822;51.000;5.874;2023-05-29T12:39:07;18.17;;;17.17;;
11531;SDS011;5822;51.000;5.874;2023-05-29T12:41:36;17.73;;;16.83;;
11531;SDS011;5822;51.000;5.874;2023-05-29T12:44:04;17.30;;;16.40;;
11531;SDS011;5822;51.000;5.874;2023-05-29T12:46:43;16.80;;;15.90;;
11531;SDS011;5822;51.000;5.874;2023-05-29T12:49:12;16.45;;;15.55;;
11531;SDS011;5822;51.000;5.874;2023-05-29T12:51:45;17.02;;;16.05;;
11531;SDS011;5822;51.000;5.874;2023-05-29T12:54:12;17.50;;;16.50;;
11531;SDS011;5822;51.000;5.874;2023-05-29T12:56:41;17.50;;;16.50;;
11531;SDS011;5822;51.000;5.874;2023-05-29T12:59:07;17.40;;;16.40;;
11531;SDS011;5822;51.000;5.874;2023-05-29T13:01:34;17.60;;;16.60;;
11531;SDS011;5822;51.000;5.874;2023-05-29T13:04:03;17.52;;;16.52;;
11531;SDS011;5822;51.000;5.874;2023-05-29T13:06:31;17.80;;;16.80;;
11531;SDS011;5822;51.000;5.874;2023-05-29T13:08:58;17.63;;;16.60;;
11531;SDS011;5822;51.000;5.874;2023-05-29T13:11:24;17.30;;;16.40;;
11531;SDS011;5822;51.000;5.874;2023-05-29T13:13:50;17.10;;;16.20;;
11531;SDS011;5822;51.000;5.874;2023-05-29T13:16:16;16.60;;;15.70;;
11531;SDS011;5822;51.000;5.874;2023-05-29T13:18:43;16.98;;;15.95;;
11531;SDS011;5822;51.000;5.874;2023-05-29T13:21:08;17.30;;;16.30;;
11531;SDS011;5822;51.000;5.874;2023-05-29T13:23:35;17.27;;;16.27;;
11531;SDS011;5822;51.000;5.874;2023-05-29T13:26:01;17.53;;;16.53;;
11531;SDS011;5822;51.000;5.874;2023-05-29T13:28:28;17.42;;;16.42;;
11531;SDS011;5822;51.000;5.874;2023-05-29T13:30:54;17.50;;;16.50;;
11531;SDS011;5822;51.000;5.874;2023-05-29T13:33:20;17.60;;;16.60;;
11531;SDS011;5822;51.000;5.874;2023-05-29T13:35:45;17.88;;;16.77;;
11531;SDS011;5822;51.000;5.874;2023-05-29T13:38:11;17.80;;;16.80;;
11531;SDS011;5822;51.000;5.874;2023-05-29T13:40:37;17.48;;;16.48;;
11531;SDS011;5822;51.000;5.874;2023-05-29T13:43:02;17.07;;;16.17;;
11531;SDS011;5822;51.000;5.874;2023-05-29T13:45:28;17.58;;;16.58;;
11531;SDS011;5822;51.000;5.874;2023-05-29T13:47:54;16.97;;;16.07;;
11531;SDS011;5822;51.000;5.874;2023-05-29T13:50:20;17.00;;;16.10;;
11531;SDS011;5822;51.000;5.874;2023-05-29T13:52:48;16.70;;;15.80;;
11531;SDS011;5822;51.000;5.874;2023-05-29T13:55:14;18.02;;;16.88;;
11531;SDS011;5822;51.000;5.874;2023-05-29T13:57:40;17.20;;;16.20;;
11531;SDS011;5822;51.000;5.874;2023-05-29T14:00:07;17.80;;;16.70;;
11531;SDS011;5822;51.000;5.874;2023-05-29T14:02:34;17.80;;;16.80;;
11531;SDS011;5822;51.000;5.874;2023-05-29T14:05:00;17.48;;;16.48;;
11531;SDS011;5822;51.000;5.874;2023-05-29T14:07:26;18.33;;;17.23;;
11531;SDS011;5822;51.000;5.874;2023-05-29T14:09:54;18.42;;;17.33;;
11531;SDS011;5822;51.000;5.874;2023-05-29T14:12:19;18.85;;;17.75;;
11531;SDS011;5822;51.000;5.874;2023-05-29T14:14:45;18.20;;;17.10;;
11531;SDS011;5822;51.000;5.874;2023-05-29T14:17:11;17.47;;;16.53;;
11531;SDS011;5822;51.000;5.874;2023-05-29T14:19:37;18.00;;;17.00;;
11531;SDS011;5822;51.000;5.874;2023-05-29T14:22:03;17.50;;;16.50;;
11531;SDS011;5822;51.000;5.874;2023-05-29T14:24:29;16.67;;;15.77;;
11531;SDS011;5822;51.000;5.874;2023-05-29T14:26:54;16.83;;;15.93;;
11531;SDS011;5822;51.000;5.874;2023-05-29T14:29:20;18.10;;;17.00;;
11531;SDS011;5822;51.000;5.874;2023-05-29T14:31:46;17.25;;;16.33;;
11531;SDS011;5822;51.000;5.874;2023-05-29T14:34:12;17.47;;;16.53;;
11531;SDS011;5822;51.000;5.874;2023-05-29T14:36:38;17.65;;;16.65;;
11531;SDS011;5822;51.000;5.874;2023-05-29T14:39:04;17.90;;;16.90;;
11531;SDS011;5822;51.000;5.874;2023-05-29T14:41:30;17.95;;;16.95;;
11531;SDS011;5822;51.000;5.874;2023-05-29T14:43:56;17.55;;;16.55;;
11531;SDS011;5822;51.000;5.874;2023-05-29T14:46:23;17.80;;;16.80;;
11531;SDS011;5822;51.000;5.874;2023-05-29T14:48:50;17.50;;;16.52;;
11531;SDS011;5822;51.000;5.874;2023-05-29T14:51:16;17.10;;;16.20;;
11531;SDS011;5822;51.000;5.874;2023-05-29T14:53:43;17.20;;;16.30;;
11531;SDS011;5822;51.000;5.874;2023-05-29T14:56:09;17.63;;;16.63;;
11531;SDS011;5822;51.000;5.874;2023-05-29T14:58:35;17.48;;;16.52;;
11531;SDS011;5822;51.000;5.874;2023-05-29T15:01:00;18.00;;;17.00;;
11531;SDS011;5822;51.000;5.874;2023-05-29T15:03:26;17.30;;;16.30;;
11531;SDS011;5822;51.000;5.874;2023-05-29T15:05:53;17.08;;;16.17;;